Terminal Aerodrome Forecast
Issued by NWS Upton, NY

Home | Current Version | Previous Version | Text Only | Print | Product List | Glossary On
Versions: 1 2 3 4 5 6 7 8 9 10 11 12 13 14 15 16 17 18 19 20 21 22 23 24 25 26 27 28 29 30 31 32 33
455
FTUS41 KOKX 250059 AAA
TAFEWR
TAF AMD
KEWR 250059Z 2501/2606 07006KT P6SM FEW015 SCT025 BKN100
      TEMPO 2501/2504 -SHRA SCT015 BKN025
     FM250400 05004KT P6SM VCSH OVC012
     FM251200 04008KT P6SM SCT015 OVC020
     FM251900 05010KT P6SM OVC035
     FM260300 05007KT P6SM BKN035=

USA.gov is the U.S. government's official web portal to all federal, state and local government web resources and services.